Time;durP1;ratioP1;P1;durP2;ratioP2;P2;SDS_P1;SDS_P2;PMS_P1;PMS_P2;Temp;Humidity;BMP_temperature;BMP_pressure;BME280_temperature;BME280_humidity;BME280_pressure;Samples;Min_cycle;Max_cycle;Signal;HPM_P1;HPM_P2
2021/12/13 00:01:14;;;;;;;12.25;5.55;;;14.80;73.50;;;;;;4807457;29;20497;-76
2021/12/13 00:03:46;;;;;;;13.23;5.97;;;14.80;73.50;;;;;;4791879;29;20055;-73
2021/12/13 00:06:22;;;;;;;10.63;6.00;;;14.80;73.60;;;;;;4806733;29;20090;-75
2021/12/13 00:08:52;;;;;;;10.48;5.18;;;14.80;73.60;;;;;;4797734;29;20386;-72
2021/12/13 00:11:41;;;;;;;12.52;5.68;;;14.80;73.60;;;;;;4813664;29;20051;-76
2021/12/13 00:14:18;;;;;;;13.50;5.97;;;14.80;73.50;;;;;;4783203;29;20047;-74
2021/12/13 00:16:49;;;;;;;9.10;5.22;;;14.80;73.60;;;;;;4813632;29;20141;-73
2021/12/13 00:19:19;;;;;;;10.05;5.20;;;14.80;73.60;;;;;;4797714;29;20059;-75
2021/12/13 00:21:57;;;;;;;12.40;6.13;;;14.80;73.60;;;;;;4797488;29;20067;-75
2021/12/13 00:24:28;;;;;;;12.13;5.72;;;14.80;73.60;;;;;;4798095;29;20061;-75
2021/12/13 00:27:05;;;;;;;10.35;6.13;;;14.70;73.60;;;;;;4797968;29;20063;-76
2021/12/13 00:30:04;;;;;;;12.35;6.10;;;14.70;73.60;;;;;;4797661;29;20057;-73
2021/12/13 00:32:57;;;;;;;15.65;7.63;;;14.80;73.50;;;;;;4798031;29;20341;-75
2021/12/13 00:35:35;;;;;;;15.60;7.05;;;14.70;73.50;;;;;;4813049;29;20069;-73
2021/12/13 00:38:05;;;;;;;11.35;6.70;;;14.80;73.60;;;;;;4813889;29;20084;-73
2021/12/13 00:40:43;;;;;;;13.07;6.40;;;14.80;73.70;;;;;;4797918;29;20093;-74
2021/12/13 00:43:23;;;;;;;11.40;6.57;;;14.70;73.60;;;;;;4813359;29;20059;-76
2021/12/13 00:46:00;;;;;;;11.82;6.72;;;14.70;73.60;;;;;;4812545;29;20047;-74
2021/12/13 00:48:30;;;;;;;12.35;6.72;;;14.80;73.60;;;;;;4797412;29;20381;-75
2021/12/13 00:51:25;;;;;;;11.65;6.63;;;14.80;73.60;;;;;;4812498;29;20067;-77
2021/12/13 00:53:53;;;;;;;11.93;7.10;;;14.70;73.50;;;;;;4797551;29;20555;-75
2021/12/13 00:56:56;;;;;;;13.25;7.57;;;14.70;73.60;;;;;;4797448;29;20051;-73
2021/12/13 00:59:25;;;;;;;12.15;7.38;;;14.70;73.50;;;;;;4797791;29;20464;-75
2021/12/13 01:02:19;;;;;;;11.70;7.05;;;14.70;73.50;;;;;;4812743;29;20367;-74
2021/12/13 01:05:32;;;;;;;12.65;7.57;;;14.70;73.40;;;;;;4804415;29;20081;-74
2021/12/13 01:08:12;;;;;;;12.90;7.78;;;14.70;73.50;;;;;;4811387;29;20055;-75
2021/12/13 01:10:54;;;;;;;14.68;7.55;;;14.70;73.60;;;;;;4812493;29;20067;-75
2021/12/13 01:13:39;;;;;;;13.68;7.95;;;14.70;73.60;;;;;;4813135;29;20137;-76
2021/12/13 01:19:29;;;;;;;12.38;7.90;;;14.70;73.60;;;;;;4810110;29;20146;-75
2021/12/13 01:22:16;;;;;;;11.50;7.85;;;14.70;73.60;;;;;;4806158;29;20150;-75
2021/12/13 01:27:40;;;;;;;12.30;7.60;;;14.60;73.60;;;;;;4810441;29;20070;-76
2021/12/13 01:30:10;;;;;;;11.02;7.53;;;14.70;73.60;;;;;;4810041;29;20501;-75
2021/12/13 01:32:49;;;;;;;11.80;7.80;;;14.70;73.70;;;;;;4794218;29;20067;-74
2021/12/13 01:35:20;;;;;;;12.23;7.97;;;14.70;73.70;;;;;;4810063;29;20057;-76
2021/12/13 01:37:51;;;;;;;15.13;8.25;;;14.60;73.60;;;;;;4794394;29;20058;-73
2021/12/13 01:40:20;;;;;;;10.85;7.15;;;14.70;73.70;;;;;;4810076;29;20066;-74
2021/12/13 01:42:55;;;;;;;12.88;7.90;;;14.60;73.60;;;;;;4809694;29;20055;-76
2021/12/13 01:45:21;;;;;;;9.93;7.55;;;14.60;73.60;;;;;;4809455;29;20371;-74
2021/12/13 01:47:47;;;;;;;11.40;7.15;;;14.60;73.60;;;;;;4809745;29;20127;-74
2021/12/13 01:50:28;;;;;;;13.18;7.30;;;14.60;73.70;;;;;;4809869;29;20054;-73
2021/12/13 01:52:55;;;;;;;14.23;7.70;;;14.60;74.30;;;;;;4794058;29;20429;-73
2021/12/13 01:55:39;;;;;;;16.73;7.65;;;14.60;73.70;;;;;;4808756;29;20378;-76
2021/12/13 02:01:10;;;;;;;11.82;6.85;;;14.60;73.70;;;;;;4809469;29;20055;-73
2021/12/13 02:04:00;;;;;;;10.95;6.55;;;14.60;73.60;;;;;;4793784;29;20068;-74
2021/12/13 02:06:37;;;;;;;15.73;6.88;;;14.60;73.60;;;;;;4809454;29;20050;-73
2021/12/13 02:09:26;;;;;;;13.98;7.47;;;14.60;73.70;;;;;;4809558;29;20058;-74
2021/12/13 02:11:57;;;;;;;14.65;7.57;;;14.60;73.60;;;;;;4809403;29;20051;-76
2021/12/13 02:14:29;;;;;;;13.63;7.22;;;14.50;73.60;;;;;;4793888;29;20055;-73
2021/12/13 02:17:11;;;;;;;11.93;7.10;;;14.50;73.60;;;;;;4793781;29;20059;-73
2021/12/13 02:19:46;;;;;;;13.05;7.20;;;14.60;73.70;;;;;;4793288;29;20051;-76
2021/12/13 02:22:20;;;;;;;13.48;6.68;;;14.50;73.60;;;;;;4808380;29;20130;-75
2021/12/13 02:24:49;;;;;;;14.10;7.38;;;14.60;73.60;;;;;;4808480;29;20051;-73
2021/12/13 02:27:24;;;;;;;12.00;6.82;;;14.60;73.60;;;;;;4793990;29;20066;-75
2021/12/13 02:29:53;;;;;;;11.35;6.57;;;14.50;73.60;;;;;;4808853;29;20383;-75
2021/12/13 02:32:20;;;;;;;13.10;6.78;;;14.50;73.60;;;;;;4808919;29;20059;-74
2021/12/13 02:34:46;;;;;;;13.77;6.85;;;14.60;73.60;;;;;;4809007;29;20126;-76
2021/12/13 02:37:12;;;;;;;14.90;6.93;;;14.60;73.60;;;;;;4808926;29;20058;-75
2021/12/13 02:39:46;;;;;;;13.88;6.65;;;14.60;73.50;;;;;;4793421;29;20050;-75
2021/12/13 02:42:14;;;;;;;13.13;5.93;;;14.60;73.50;;;;;;4808968;29;20054;-75
2021/12/13 02:44:48;;;;;;;13.32;6.28;;;14.50;73.50;;;;;;4809378;29;20468;-73
2021/12/13 02:47:22;;;;;;;13.18;5.90;;;14.50;73.50;;;;;;4808833;29;20208;-76
2021/12/13 02:49:48;;;;;;;10.95;4.80;;;14.60;73.50;;;;;;4808746;29;20055;-73
2021/12/13 02:52:19;;;;;;;12.00;5.57;;;14.50;73.40;;;;;;4808751;29;20070;-75
2021/12/13 02:54:52;;;;;;;10.73;4.95;;;14.50;73.50;;;;;;4792803;29;20058;-75
2021/12/13 02:57:25;;;;;;;15.00;5.80;;;14.50;73.50;;;;;;4792927;29;20055;-74
2021/12/13 03:00:13;;;;;;;10.95;4.90;;;14.50;73.50;;;;;;4808251;29;20491;-74
2021/12/13 03:02:44;;;;;;;11.13;4.95;;;14.50;73.50;;;;;;4792825;29;20058;-74
2021/12/13 03:05:16;;;;;;;12.48;4.78;;;14.50;73.50;;;;;;4793480;29;20080;-76
2021/12/13 03:07:47;;;;;;;9.93;4.22;;;14.50;73.40;;;;;;4792737;29;20050;-74
2021/12/13 03:10:19;;;;;;;13.40;3.92;;;14.50;73.50;;;;;;4808342;29;20067;-73
2021/12/13 03:12:45;;;;;;;10.10;4.28;;;14.50;73.40;;;;;;4793072;29;20059;-73
2021/12/13 03:15:16;;;;;;;12.10;3.88;;;14.50;73.40;;;;;;4792873;29;20062;-75
2021/12/13 03:17:54;;;;;;;11.95;3.88;;;14.50;73.40;;;;;;4808604;29;20116;-73
2021/12/13 03:20:51;;;;;;;10.73;4.00;;;14.50;73.30;;;;;;4792791;29;20047;-75
2021/12/13 03:23:35;;;;;;;10.18;3.47;;;14.50;73.40;;;;;;4792982;29;20329;-74
2021/12/13 03:26:01;;;;;;;;;;;14.50;73.30;;;;;;4808437;29;20532;-74
2021/12/13 03:28:54;;;;;;;8.18;3.50;;;14.50;73.20;;;;;;4793100;29;19924;-74
2021/12/13 03:31:27;;;;;;;12.98;3.45;;;14.50;73.50;;;;;;4807348;29;20136;-75
2021/12/13 03:33:55;;;;;;;6.85;3.10;;;14.50;73.50;;;;;;4807739;29;20076;-73
2021/12/13 03:36:33;;;;;;;10.38;3.65;;;14.50;73.50;;;;;;4808507;29;20095;-75
2021/12/13 03:38:59;;;;;;;9.68;3.78;;;14.40;73.30;;;;;;4807215;29;20054;-75
2021/12/13 03:41:26;;;;;;;10.93;3.97;;;14.50;73.30;;;;;;4808048;29;20123;-75
2021/12/13 03:44:19;;;;;;;7.28;3.13;;;14.40;73.20;;;;;;4791790;29;20055;-74
2021/12/13 03:46:51;;;;;;;8.98;3.08;;;14.50;73.20;;;;;;4807925;29;20437;-76
2021/12/13 03:49:19;;;;;;;12.20;3.05;;;14.50;73.20;;;;;;4808404;29;20092;-74
2021/12/13 03:51:45;;;;;;;7.57;2.95;;;14.40;73.20;;;;;;4792181;29;20063;-76
2021/12/13 03:54:16;;;;;;;9.57;2.88;;;14.40;73.10;;;;;;4776841;29;20071;-76
2021/12/13 03:56:47;;;;;;;9.45;3.08;;;14.40;73.10;;;;;;4776672;29;20383;-74
2021/12/13 03:59:22;;;;;;;8.75;2.88;;;14.40;73.10;;;;;;4792325;29;20102;-74
2021/12/13 04:01:52;;;;;;;10.75;3.38;;;14.40;73.00;;;;;;4807699;29;20080;-74
2021/12/13 04:04:24;;;;;;;10.18;3.28;;;14.40;73.60;;;;;;4808073;29;20494;-75
2021/12/13 04:06:55;;;;;;;9.15;3.00;;;14.40;73.00;;;;;;4791898;29;20046;-75
2021/12/13 04:09:23;;;;;;;8.02;2.75;;;14.40;73.00;;;;;;4792543;29;20433;-74
2021/12/13 04:11:53;;;;;;;8.30;2.70;;;14.40;72.90;;;;;;4808068;29;20059;-73
2021/12/13 04:14:25;;;;;;;7.53;2.40;;;14.40;72.90;;;;;;4791934;29;20063;-73
2021/12/13 04:17:22;;;;;;;13.75;3.88;;;14.40;73.00;;;;;;4808071;29;20183;-76
2021/12/13 04:19:59;;;;;;;8.68;3.05;;;14.40;72.90;;;;;;4791732;29;20051;-75
2021/12/13 04:22:29;;;;;;;7.93;2.47;;;14.40;72.90;;;;;;4791979;29;20142;-75
2021/12/13 04:25:03;;;;;;;8.23;2.72;;;14.40;73.00;;;;;;4792394;29;20051;-75
2021/12/13 04:27:36;;;;;;;8.40;2.55;;;14.30;72.90;;;;;;4791783;29;20059;-73
2021/12/13 04:30:31;;;;;;;6.80;2.10;;;14.40;72.80;;;;;;4807424;29;20055;-75
2021/12/13 04:33:10;;;;;;;7.15;2.03;;;14.30;72.50;;;;;;4776249;29;20055;-75
2021/12/13 04:35:37;;;;;;;5.97;1.95;;;14.30;72.60;;;;;;4807566;29;20058;-74
2021/12/13 04:38:06;;;;;;;7.10;2.30;;;14.30;72.60;;;;;;4807331;29;20104;-72
2021/12/13 04:40:39;;;;;;;3.92;2.10;;;14.30;72.50;;;;;;4807421;29;20058;-74
2021/12/13 04:43:11;;;;;;;7.15;2.25;;;14.30;72.40;;;;;;4792101;29;20054;-73
2021/12/13 04:45:44;;;;;;;5.85;1.60;;;14.30;72.40;;;;;;4806871;29;20055;-75
2021/12/13 04:48:13;;;;;;;6.65;1.65;;;14.30;72.40;;;;;;4791676;29;20490;-75
2021/12/13 04:51:16;;;;;;;5.38;1.73;;;14.30;72.40;;;;;;4776071;29;20123;-78
2021/12/13 04:53:46;;;;;;;5.30;2.08;;;14.30;72.60;;;;;;4807657;29;20046;-76
2021/12/13 04:56:22;;;;;;;6.03;1.70;;;14.30;72.70;;;;;;4795483;29;20111;-76
2021/12/13 05:02:18;;;;;;;6.65;2.20;;;14.30;73.00;;;;;;4799441;29;20063;-76
2021/12/13 05:04:43;;;;;;;6.07;2.15;;;14.20;72.90;;;;;;4810609;29;20047;-75
2021/12/13 05:07:09;;;;;;;6.78;1.83;;;14.30;73.00;;;;;;4794290;29;20130;-73
2021/12/13 05:09:36;;;;;;;9.10;2.38;;;14.20;72.90;;;;;;4778952;29;20086;-74
2021/12/13 05:12:01;;;;;;;8.70;1.83;;;14.30;74.00;;;;;;4809402;29;20055;-75
2021/12/13 05:14:32;;;;;;;9.52;1.60;;;14.30;74.60;;;;;;4810665;29;20047;-74
2021/12/13 05:17:05;;;;;;;9.25;1.25;;;14.60;74.00;;;;;;4794120;29;20513;-76
2021/12/13 05:19:35;;;;;;;7.63;1.58;;;14.80;73.40;;;;;;4810285;29;20091;-78
2021/12/13 05:22:03;;;;;;;8.38;1.42;;;15.10;72.80;;;;;;4793917;29;20059;-78
2021/12/13 05:24:32;;;;;;;6.90;1.40;;;15.40;72.50;;;;;;4809894;29;20134;-79
2021/12/13 05:27:31;;;;;;;7.60;1.75;;;15.60;72.30;;;;;;4794061;29;20447;-75
2021/12/13 05:30:23;;;;;;;4.60;1.30;;;15.80;72.70;;;;;;4794343;29;20059;-76
2021/12/13 05:32:54;;;;;;;13.57;1.50;;;15.80;73.10;;;;;;4791692;30;20146;-73
2021/12/13 05:35:33;;;;;;;8.75;1.55;;;15.90;73.90;;;;;;4792003;30;20047;-74
2021/12/13 05:38:10;;;;;;;8.00;1.10;;;16.00;74.30;;;;;;4792180;30;20061;-77
2021/12/13 05:40:40;;;;;;;4.70;1.23;;;16.00;74.90;;;;;;4792079;30;20133;-78
2021/12/13 05:43:31;;;;;;;11.70;1.30;;;16.00;75.00;;;;;;4802758;29;20080;-73
2021/12/13 05:46:09;;;;;;;6.57;1.65;;;16.10;75.50;;;;;;4810062;29;20363;-74
2021/12/13 05:48:35;;;;;;;5.70;1.17;;;16.10;75.80;;;;;;4810161;29;20051;-74
2021/12/13 05:51:17;;;;;;;7.53;1.73;;;16.00;76.10;;;;;;4810171;29;20351;-76
2021/12/13 05:53:51;;;;;;;5.53;1.23;;;16.00;76.40;;;;;;4809493;29;20097;-75
2021/12/13 05:56:18;;;;;;;7.00;1.73;;;16.10;76.20;;;;;;4793684;29;20047;-75
2021/12/13 05:58:55;;;;;;;5.25;0.90;;;16.10;76.20;;;;;;4809889;29;20046;-74
2021/12/13 06:01:36;;;;;;;5.88;2.00;;;16.10;75.50;;;;;;4809264;29;20448;-75
2021/12/13 06:04:16;;;;;;;4.63;1.23;;;16.00;73.70;;;;;;4806134;29;20124;-74
2021/12/13 06:06:48;;;;;;;4.70;1.27;;;16.20;75.20;;;;;;4805352;29;20086;-75
2021/12/13 06:09:54;;;;;;;6.35;1.52;;;16.30;74.90;;;;;;4805892;29;20081;-73
2021/12/13 06:12:45;;;;;;;4.85;1.23;;;16.50;74.90;;;;;;4796078;29;20087;-74
2021/12/13 06:15:13;;;;;;;4.22;1.08;;;16.60;74.50;;;;;;4778800;29;20065;-77
2021/12/13 06:17:48;;;;;;;4.15;1.02;;;16.80;74.10;;;;;;4793553;29;20043;-77
2021/12/13 06:20:21;;;;;;;4.75;1.45;;;16.90;73.80;;;;;;4809513;29;20059;-77
2021/12/13 06:22:47;;;;;;;7.88;1.67;;;16.90;73.70;;;;;;4809105;29;20051;-76
2021/12/13 06:25:18;;;;;;;10.18;1.10;;;17.00;74.00;;;;;;4793614;29;20143;-78
2021/12/13 06:27:56;;;;;;;9.73;1.35;;;17.00;74.20;;;;;;4808919;29;20498;-77
2021/12/13 06:30:38;;;;;;;13.52;1.52;;;17.00;74.30;;;;;;4793368;29;20062;-77
2021/12/13 06:33:11;;;;;;;13.82;1.60;;;17.00;74.30;;;;;;4793016;29;20098;-73
2021/12/13 06:36:01;;;;;;;9.05;1.85;;;17.00;74.10;;;;;;4809105;29;20138;-72
2021/12/13 06:38:35;;;;;;;15.15;1.90;;;17.00;73.80;;;;;;4793387;29;20054;-72
2021/12/13 06:41:13;;;;;;;13.20;1.90;;;17.00;74.00;;;;;;4809183;29;20448;-77
2021/12/13 06:43:57;;;;;;;15.27;2.00;;;17.00;74.20;;;;;;4807616;29;20065;-71
2021/12/13 06:46:22;;;;;;;;;;;17.00;74.10;;;;;;4793670;29;20108;-73
2021/12/13 06:49:01;;;;;;;11.70;1.65;;;17.00;74.00;;;;;;4793193;29;20040;-74
2021/12/13 06:51:37;;;;;;;8.00;1.80;;;17.00;74.10;;;;;;4809199;29;20051;-71
2021/12/13 06:54:14;;;;;;;11.77;2.13;;;17.00;74.40;;;;;;4808600;29;20054;-72
2021/12/13 06:56:42;;;;;;;15.57;1.75;;;17.00;74.40;;;;;;4793148;29;20066;-73
2021/12/13 06:59:14;;;;;;;17.00;2.03;;;17.00;74.30;;;;;;4793105;29;20062;-74
2021/12/13 07:01:41;;;;;;;14.60;2.13;;;17.00;74.50;;;;;;4809172;29;20159;-72
2021/12/13 07:04:11;;;;;;;21.20;2.83;;;17.00;74.40;;;;;;4807565;29;20074;-72
2021/12/13 07:06:38;;;;;;;15.60;2.03;;;17.00;74.50;;;;;;4809194;29;20097;-73
2021/12/13 07:09:21;;;;;;;18.92;2.95;;;17.00;74.60;;;;;;4808613;29;20065;-74
2021/12/13 07:11:52;;;;;;;19.00;3.60;;;17.00;74.40;;;;;;4792824;29;20134;-72
2021/12/13 07:14:21;;;;;;;18.75;3.55;;;17.00;74.10;;;;;;4792513;29;20058;-73
2021/12/13 07:16:52;;;;;;;13.35;3.40;;;17.00;73.70;;;;;;4807934;29;20062;-74
2021/12/13 07:19:22;;;;;;;10.20;3.00;;;17.10;72.80;;;;;;4808770;29;20058;-73
2021/12/13 07:22:03;;;;;;;11.07;3.10;;;17.10;72.50;;;;;;4807298;29;20137;-72
2021/12/13 07:24:43;;;;;;;14.55;3.35;;;17.10;72.20;;;;;;4808095;29;20486;-72
2021/12/13 07:27:15;;;;;;;17.38;2.70;;;17.10;72.20;;;;;;4808518;29;20376;-71
2021/12/13 07:29:54;;;;;;;7.95;2.30;;;17.10;72.10;;;;;;4792320;29;20054;-72
2021/12/13 07:32:28;;;;;;;9.38;2.33;;;17.10;72.00;;;;;;4808254;29;20379;-72
2021/12/13 07:34:56;;;;;;;12.98;2.58;;;17.20;71.80;;;;;;4792668;29;20051;-73
2021/12/13 07:37:38;;;;;;;6.50;2.30;;;17.20;71.60;;;;;;4808213;29;20065;-71
2021/12/13 07:40:22;;;;;;;10.95;2.55;;;17.20;71.40;;;;;;4787127;29;20105;-76
2021/12/13 07:43:09;;;;;;;8.68;2.35;;;17.20;71.40;;;;;;4806352;29;20134;-73
2021/12/13 07:45:46;;;;;;;8.65;2.42;;;17.20;71.60;;;;;;4808190;29;20137;-74
2021/12/13 07:48:26;;;;;;;8.50;2.55;;;17.20;71.70;;;;;;4807804;29;20050;-73
2021/12/13 07:51:15;;;;;;;7.05;2.60;;;17.30;71.60;;;;;;4805552;29;20125;-73
2021/12/13 07:53:40;;;;;;;5.28;2.72;;;17.30;71.40;;;;;;4785099;30;20137;-71
2021/12/13 07:56:09;;;;;;;6.63;2.63;;;17.40;71.40;;;;;;4824803;29;20162;-73
2021/12/13 07:58:40;;;;;;;6.80;2.50;;;17.40;71.30;;;;;;4789866;29;20058;-73
2021/12/13 08:01:19;;;;;;;5.88;2.63;;;17.30;71.60;;;;;;4806992;29;20372;-72
2021/12/13 08:03:56;;;;;;;6.45;2.47;;;17.40;71.70;;;;;;4806569;29;20050;-72
2021/12/13 08:06:27;;;;;;;4.30;2.63;;;17.30;71.50;;;;;;4806896;29;20356;-73
2021/12/13 08:08:58;;;;;;;7.95;2.95;;;17.30;71.10;;;;;;4806308;29;20372;-73
2021/12/13 08:11:42;;;;;;;7.10;2.60;;;17.30;71.10;;;;;;4791063;29;20062;-71
2021/12/13 08:14:09;;;;;;;5.38;2.78;;;17.30;70.60;;;;;;4805900;29;20204;-73
2021/12/13 08:17:18;;;;;;;7.53;3.00;;;17.30;70.40;;;;;;4815197;29;20066;-76
2021/12/13 08:19:52;;;;;;;3.90;2.47;;;17.30;70.50;;;;;;4790715;29;20051;-73
2021/12/13 08:22:20;;;;;;;6.30;3.40;;;17.30;70.80;;;;;;4787801;30;20062;-74
2021/12/13 08:24:51;;;;;;;5.28;2.60;;;17.30;70.70;;;;;;4801777;29;20050;-73
2021/12/13 08:27:32;;;;;;;7.15;2.75;;;17.30;70.50;;;;;;4806951;29;20059;-78
2021/12/13 08:30:25;;;;;;;6.20;2.60;;;17.30;70.60;;;;;;4809605;29;20062;-73
2021/12/13 08:33:09;;;;;;;5.30;2.58;;;17.30;70.60;;;;;;4809571;29;20487;-73
2021/12/13 08:36:15;;;;;;;4.90;2.70;;;17.40;70.70;;;;;;4809747;29;20516;-73
2021/12/13 08:38:49;;;;;;;5.50;2.92;;;17.30;70.50;;;;;;4806510;29;20138;-73
2021/12/13 08:41:14;;;;;;;17.85;10.02;;;17.30;71.10;;;;;;4810474;29;20130;-72
2021/12/13 08:43:46;;;;;;;11.88;5.90;;;17.30;71.50;;;;;;4810483;29;20097;-71
2021/12/13 08:46:43;;;;;;;10.68;4.93;;;17.30;71.60;;;;;;4809908;29;20430;-72
2021/12/13 08:49:30;;;;;;;6.07;3.83;;;17.30;71.50;;;;;;4784829;29;20448;-72
2021/12/13 08:51:58;;;;;;;8.50;4.53;;;17.30;71.20;;;;;;4809896;29;20344;-71
2021/12/13 08:54:55;;;;;;;9.32;4.90;;;17.30;71.20;;;;;;4810003;29;20086;-71
2021/12/13 08:57:37;;;;;;;14.65;8.57;;;17.30;71.10;;;;;;4760973;29;20102;-72
2021/12/13 09:00:25;;;;;;;7.25;5.20;;;17.30;71.30;;;;;;4810128;29;20055;-71
2021/12/13 09:02:59;;;;;;;8.88;5.47;;;17.30;71.10;;;;;;4809497;29;20050;-72
2021/12/13 09:05:33;;;;;;;8.52;4.70;;;17.30;71.10;;;;;;4792106;29;20058;-72
2021/12/13 09:08:09;;;;;;;8.40;4.53;;;17.30;71.00;;;;;;4808806;29;20505;-72
2021/12/13 09:10:50;;;;;;;6.45;4.03;;;17.30;71.00;;;;;;4809408;29;20548;-72
2021/12/13 09:13:31;;;;;;;10.52;4.45;;;17.30;70.90;;;;;;4809741;29;20115;-72
2021/12/13 09:15:59;;;;;;;6.30;4.07;;;17.30;71.00;;;;;;4821216;29;20077;-71
2021/12/13 09:18:25;;;;;;;7.43;4.03;;;17.30;70.80;;;;;;4827782;29;20054;-72
2021/12/13 09:20:54;;;;;;;6.15;4.20;;;17.30;70.80;;;;;;4816788;29;20073;-71
2021/12/13 09:23:25;;;;;;;7.75;4.57;;;17.30;70.90;;;;;;4809886;29;20069;-72
2021/12/13 09:26:03;;;;;;;9.35;4.18;;;17.00;63.40;;;;;;4810801;29;20236;-72
2021/12/13 09:28:35;;;;;;;8.20;3.97;;;16.80;71.10;;;;;;4789854;30;20062;-70
2021/12/13 09:31:08;;;;;;;8.25;4.60;;;16.80;71.40;;;;;;4805210;29;20382;-71
2021/12/13 09:33:48;;;;;;;7.13;4.88;;;16.90;71.00;;;;;;4808108;29;20070;-71
2021/12/13 09:36:30;;;;;;;8.18;4.38;;;16.90;70.50;;;;;;4809326;29;20073;-71
2021/12/13 09:39:16;;;;;;;7.25;4.45;;;16.90;69.50;;;;;;4809517;29;20066;-74
2021/12/13 09:42:00;;;;;;;8.52;4.15;;;16.90;68.70;;;;;;4807879;29;20055;-73
2021/12/13 09:44:34;;;;;;;5.50;3.70;;;16.90;68.50;;;;;;4791633;30;20063;-74
2021/12/13 09:47:10;;;;;;;7.95;4.13;;;16.90;68.70;;;;;;4797423;29;20050;-73
2021/12/13 09:49:48;;;;;;;8.50;4.00;;;16.70;67.70;;;;;;4809446;29;20082;-72
2021/12/13 09:52:40;;;;;;;6.88;4.00;;;16.10;68.90;;;;;;4809006;29;20625;-71
2021/12/13 09:55:25;;;;;;;7.32;4.43;;;15.70;70.90;;;;;;4807058;29;20067;-72
2021/12/13 09:57:56;;;;;;;8.35;3.65;;;15.50;73.20;;;;;;4808029;29;20467;-71
2021/12/13 10:00:34;;;;;;;5.80;3.58;;;15.40;74.20;;;;;;4809084;29;20135;-71
2021/12/13 10:03:11;;;;;;;6.60;3.50;;;15.20;74.70;;;;;;4809206;29;20425;-72
2021/12/13 10:05:42;;;;;;;6.53;3.60;;;15.10;74.90;;;;;;4808501;29;20051;-71
2021/12/13 10:08:16;;;;;;;6.18;3.30;;;15.20;75.20;;;;;;4809038;29;20138;-72
2021/12/13 10:11:05;;;;;;;6.38;3.22;;;15.00;75.20;;;;;;4808997;29;20055;-71
2021/12/13 10:13:36;;;;;;;9.93;3.42;;;14.90;75.70;;;;;;4809115;29;20049;-71
2021/12/13 10:16:07;;;;;;;10.55;3.20;;;14.80;75.80;;;;;;4792920;29;20130;-72
2021/12/13 10:18:36;;;;;;;6.07;3.63;;;14.80;76.10;;;;;;4808799;29;20094;-71
2021/12/13 10:21:10;;;;;;;7.68;3.42;;;14.70;76.20;;;;;;4808772;29;20050;-72
2021/12/13 10:23:42;;;;;;;5.10;3.38;;;14.70;76.30;;;;;;4808490;29;20061;-71
2021/12/13 10:26:11;;;;;;;5.07;2.95;;;14.70;76.50;;;;;;4808873;29;20046;-71
2021/12/13 10:28:45;;;;;;;5.10;3.00;;;14.70;76.50;;;;;;4808598;29;20464;-72
2021/12/13 10:31:19;;;;;;;4.88;2.90;;;14.60;76.60;;;;;;4808651;29;20076;-71
2021/12/13 10:33:46;;;;;;;7.13;3.08;;;14.60;76.70;;;;;;4808370;29;20062;-74
2021/12/13 10:36:12;;;;;;;4.70;3.22;;;14.60;76.80;;;;;;4808134;29;20077;-72
2021/12/13 10:38:53;;;;;;;6.50;2.78;;;14.70;77.00;;;;;;4808247;29;20050;-73
2021/12/13 10:41:32;;;;;;;5.93;2.90;;;14.70;76.90;;;;;;4801156;29;20059;-73
2021/12/13 10:44:11;;;;;;;13.18;3.80;;;14.70;76.80;;;;;;4808978;29;20088;-80
2021/12/13 10:46:43;;;;;;;24.30;5.05;;;14.70;77.00;;;;;;4789998;30;20147;-74
2021/12/13 10:49:18;;;;;;;16.13;4.50;;;14.80;77.00;;;;;;4790366;30;20055;-74
2021/12/13 10:51:54;;;;;;;19.27;5.60;;;14.90;76.60;;;;;;4789610;29;20423;-73
2021/12/13 10:54:25;;;;;;;21.00;5.63;;;15.00;76.30;;;;;;4788842;29;20051;-74
2021/12/13 10:56:59;;;;;;;16.45;5.93;;;15.00;76.60;;;;;;4804958;29;20057;-78
2021/12/13 10:59:29;;;;;;;17.08;5.78;;;15.20;76.10;;;;;;4807862;29;20051;-76
2021/12/13 11:02:00;;;;;;;9.98;6.10;;;15.30;75.40;;;;;;4806290;29;20066;-75
2021/12/13 11:04:36;;;;;;;9.63;6.10;;;15.40;74.10;;;;;;4807008;29;20133;-75
2021/12/13 11:07:05;;;;;;;10.88;5.75;;;15.40;73.40;;;;;;4808017;29;20058;-74
2021/12/13 11:09:37;;;;;;;8.98;6.45;;;15.40;72.90;;;;;;4807520;29;20122;-74
2021/12/13 11:12:33;;;;;;;11.30;5.68;;;15.50;72.70;;;;;;4804545;29;20536;-74
2021/12/13 11:15:06;;;;;;;11.45;6.55;;;15.50;72.20;;;;;;4793664;29;20050;-75
2021/12/13 11:17:34;;;;;;;9.53;6.50;;;15.50;71.80;;;;;;4807701;29;20411;-76
2021/12/13 11:20:10;;;;;;;11.10;6.07;;;15.50;71.60;;;;;;4807533;29;20067;-75
2021/12/13 11:22:40;;;;;;;8.98;6.15;;;15.50;71.00;;;;;;4791447;29;20054;-73
2021/12/13 11:25:18;;;;;;;7.00;6.07;;;15.50;70.80;;;;;;4807357;29;20082;-73
2021/12/13 11:27:45;;;;;;;11.05;5.97;;;15.50;70.50;;;;;;4807493;29;20101;-77
2021/12/13 11:30:17;;;;;;;9.43;5.70;;;15.60;70.50;;;;;;4807316;29;20051;-74
2021/12/13 11:32:58;;;;;;;9.13;5.65;;;15.60;70.20;;;;;;4806477;29;20090;-76
2021/12/13 11:35:55;;;;;;;9.25;5.63;;;15.60;70.10;;;;;;4807329;29;20115;-74
2021/12/13 11:38:30;;;;;;;8.13;4.93;;;15.60;70.00;;;;;;4802940;29;20066;-75
2021/12/13 11:41:35;;;;;;;8.75;5.18;;;15.60;69.80;;;;;;4789046;29;20047;-74
2021/12/13 11:44:31;;;;;;;7.80;5.00;;;15.70;69.80;;;;;;4789168;30;20418;-74
2021/12/13 11:47:35;;;;;;;6.25;4.50;;;15.70;69.70;;;;;;4791464;29;20051;-73
2021/12/13 11:50:13;;;;;;;9.82;4.88;;;15.70;69.60;;;;;;4807413;29;20054;-74
2021/12/13 11:53:14;;;;;;;5.88;3.72;;;15.70;69.80;;;;;;4806479;29;20054;-74
2021/12/13 11:56:14;;;;;;;6.28;4.13;;;15.70;70.00;;;;;;4806974;29;20055;-74
2021/12/13 11:58:59;;;;;;;6.10;3.70;;;15.60;70.00;;;;;;4807414;29;20124;-74
2021/12/13 12:01:46;;;;;;;7.53;3.83;;;15.70;70.20;;;;;;4797679;29;20065;-74
2021/12/13 12:04:43;;;;;;;6.20;3.80;;;15.60;70.30;;;;;;4788509;29;20128;-74
2021/12/13 12:07:33;;;;;;;9.10;3.30;;;15.60;70.50;;;;;;4791349;29;20055;-72
2021/12/13 12:10:19;;;;;;;8.10;3.28;;;15.60;70.80;;;;;;4807073;29;20387;-73
2021/12/13 12:13:36;;;;;;;9.02;3.38;;;15.60;71.00;;;;;;4805831;29;20446;-73
2021/12/13 12:16:05;;;;;;;6.82;3.10;;;15.60;71.30;;;;;;4764176;29;20050;-73
2021/12/13 12:18:38;;;;;;;7.22;3.00;;;15.60;71.40;;;;;;4791156;29;20433;-74
2021/12/13 12:21:33;;;;;;;6.32;2.75;;;15.60;71.40;;;;;;4790182;29;20063;-75
2021/12/13 12:24:10;;;;;;;5.03;3.00;;;15.60;71.40;;;;;;4806900;29;20054;-79
2021/12/13 12:26:36;;;;;;;4.75;2.03;;;15.60;71.60;;;;;;4806892;29;20047;-75
2021/12/13 12:29:09;;;;;;;5.03;2.63;;;15.60;71.70;;;;;;4801659;29;20051;-74
2021/12/13 12:31:43;;;;;;;5.30;2.53;;;15.60;71.90;;;;;;4806558;29;20047;-76
2021/12/13 12:34:14;;;;;;;7.32;2.65;;;15.60;72.60;;;;;;4769142;30;20127;-75
2021/12/13 12:37:21;;;;;;;4.60;2.65;;;15.60;72.10;;;;;;4769409;30;20051;-78
2021/12/13 12:40:16;;;;;;;7.70;2.40;;;15.60;72.30;;;;;;4760532;30;20055;-78
2021/12/13 12:42:52;;;;;;;4.70;2.28;;;15.60;72.40;;;;;;4770630;30;20056;-76
2021/12/13 12:45:28;;;;;;;3.78;2.30;;;15.60;72.50;;;;;;4770729;30;20435;-75
2021/12/13 12:48:15;;;;;;;4.65;2.63;;;15.60;72.50;;;;;;4770740;30;20074;-76
2021/12/13 12:51:10;;;;;;;4.15;2.25;;;15.60;72.60;;;;;;4767968;30;20047;-75
2021/12/13 12:53:50;;;;;;;6.07;2.35;;;15.70;72.80;;;;;;4762411;30;20145;-76
2021/12/13 12:56:25;;;;;;;9.20;2.50;;;15.60;72.90;;;;;;4764720;30;20056;-77
2021/12/13 12:58:58;;;;;;;4.60;2.25;;;15.70;72.80;;;;;;4770279;30;20117;-74
2021/12/13 13:01:47;;;;;;;3.47;2.35;;;15.70;72.80;;;;;;4798279;29;20312;-73
2021/12/13 13:04:26;;;;;;;7.50;2.63;;;15.70;72.80;;;;;;4769662;30;20067;-74
2021/12/13 13:07:00;;;;;;;8.57;2.47;;;15.70;73.00;;;;;;4769052;30;20059;-76
2021/12/13 13:09:45;;;;;;;9.40;4.78;;;15.70;72.80;;;;;;4769710;30;20047;-72
2021/12/13 13:12:15;;;;;;;9.35;6.65;;;15.70;74.70;;;;;;4768230;30;20368;-73
2021/12/13 13:14:48;;;;;;;8.38;5.20;;;15.80;75.60;;;;;;4772177;30;20095;-73
2021/12/13 13:17:14;;;;;;;5.88;4.05;;;15.80;76.80;;;;;;4772239;30;20376;-74
2021/12/13 13:19:45;;;;;;;15.27;5.35;;;15.90;74.90;;;;;;4787678;30;20091;-76
2021/12/13 13:22:12;;;;;;;7.43;5.13;;;15.90;74.40;;;;;;4773430;30;20152;-75
2021/12/13 13:24:43;;;;;;;8.70;5.88;;;15.90;74.20;;;;;;4787297;30;20079;-79
2021/12/13 13:27:10;;;;;;;8.95;7.60;;;15.90;74.20;;;;;;4770056;30;20060;-74
2021/12/13 13:29:38;;;;;;;12.55;10.98;;;15.90;73.90;;;;;;4781200;30;20127;-75
2021/12/13 13:32:09;;;;;;;14.63;13.13;;;15.90;73.80;;;;;;4778907;29;20066;-74
2021/12/13 13:34:39;;;;;;;19.27;12.48;;;15.90;73.80;;;;;;4809176;29;20133;-76
2021/12/13 13:37:04;;;;;;;13.95;10.30;;;15.90;73.80;;;;;;4809181;29;20058;-74
2021/12/13 13:39:33;;;;;;;11.32;8.95;;;15.90;73.80;;;;;;4809015;29;20050;-72
2021/12/13 13:42:19;;;;;;;21.02;9.63;;;15.90;73.90;;;;;;4814199;29;20051;-75
2021/12/13 13:45:20;;;;;;;13.32;7.70;;;15.90;73.70;;;;;;4808183;29;20479;-72